Time;durP1;ratioP1;P1;durP2;ratioP2;P2;SDS_P1;SDS_P2;PMS_P1;PMS_P2;Temp;Humidity;BMP_temperature;BMP_pressure;BME280_temperature;BME280_humidity;BME280_pressure;Samples;Min_cycle;Max_cycle;Signal;HPM_P1;HPM_P2
2022/02/05 00:02:08;;;;;;;;;;;;;;;15.22;46.05;100060.09;4921299;28;98272;-63
2022/02/05 00:04:35;;;;;;;;;;;;;;;15.21;45.63;100064.72;4921904;28;98256;-63
2022/02/05 00:07:04;;;;;;;;;;;;;;;15.22;45.87;100068.22;4920740;28;98040;-63
2022/02/05 00:38:52;;;;;;;;;;;;;;;15.13;45.61;100148.78;4936943;28;98340;-63
2022/02/05 00:43:59;;;;;;;;;;;;;;;15.12;45.97;100152.59;4933299;28;98451;-63
2022/02/05 00:46:29;;;;;;;;;;;;;;;15.11;45.65;100156.44;4919613;28;98475;-56
2022/02/05 00:48:55;;;;;;;;;;;;;;;15.11;45.44;100161.88;4936743;28;97829;-63
2022/02/05 00:51:47;;;;;;;;;;;;;;;15.11;45.75;100170.81;4938843;28;97844;-63
2022/02/05 00:54:17;;;;;;;;;;;;;;;15.10;45.77;100169.22;4938570;28;98560;-55
2022/02/05 00:57:19;;;;;;;;;;;;;;;15.10;45.34;100166.50;4938184;28;98802;-56
2022/02/05 00:59:45;;;;;;;;;;;;;;;15.09;45.38;100172.22;4938856;28;98035;-55
2022/02/05 01:02:11;;;;;;;;;;;;;;;15.09;45.91;100181.19;4938749;28;97782;-63
2022/02/05 01:04:37;;;;;;;;;;;;;;;15.09;45.71;100188.50;4937875;28;106759;-56
2022/02/05 01:07:03;;;;;;;;;;;;;;;15.08;45.41;100184.19;4936870;28;128253;-56
2022/02/05 01:09:29;;;;;;;;;;;;;;;15.08;45.57;100184.19;4937772;28;118017;-55
2022/02/05 01:11:56;;;;;;;;;;;;;;;15.07;45.55;100179.88;4937871;28;121562;-56
2022/02/05 01:14:28;;;;;;;;;;;;;;;15.07;45.51;100193.44;4923936;28;98651;-62
2022/02/05 01:19:51;;;;;;;;;;;;;;;15.04;45.98;100211.13;4928525;28;109286;-63
2022/02/05 01:22:13;;;;;;;;;;;;;;;15.03;45.64;100206.81;4917669;28;98191;-55
2022/02/05 01:24:41;;;;;;;;;;;;;;;15.01;45.54;100213.63;4919409;28;98820;-63
2022/02/05 01:27:12;;;;;;;;;;;;;;;15.00;45.74;100212.03;4918088;28;99544;-56
2022/02/05 01:30:09;;;;;;;;;;;;;;;14.98;45.66;100210.44;4919391;28;98005;-56
2022/02/05 01:32:38;;;;;;;;;;;;;;;14.97;45.70;100221.56;4919256;28;97958;-56
2022/02/05 01:35:32;;;;;;;;;;;;;;;14.95;46.08;100226.53;4981105;28;97856;-62
2022/02/05 01:51:42;;;;;;;;;;;;;;;14.80;46.34;100245.81;4977322;27;114770;-62
2022/02/05 01:54:28;;;;;;;;;;;;;;;14.79;45.85;100260.47;4961794;28;98417;-55
2022/02/05 01:57:07;;;;;;;;;;;;;;;14.76;45.95;100259.16;4977609;28;98318;-62
2022/02/05 02:05:06;;;;;;;;;;;;;;;14.72;46.01;100267.09;4976851;28;98005;-62
2022/02/05 02:15:42;;;;;;;;;;;;;;;14.68;46.41;100278.84;4984112;27;97857;-56
2022/02/05 02:21:11;;;;;;;;;;;;;;;14.65;46.26;100282.16;4977841;28;98032;-62
2022/02/05 02:29:11;;;;;;;;;;;;;;;14.60;46.23;100291.19;5000023;27;98406;-63
2022/02/05 02:31:44;;;;;;;;;;;;;;;14.60;46.49;100295.81;5019974;27;97882;-55
2022/02/05 02:34:14;;;;;;;;;;;;;;;14.59;46.24;100292.31;5018531;27;98523;-62
2022/02/05 02:36:52;;;;;;;;;;;;;;;14.60;46.40;100296.63;5019384;27;97835;-55
2022/02/05 02:39:24;;;;;;;;;;;;;;;14.59;46.30;100300.44;5001854;27;97995;-55
2022/02/05 02:42:02;;;;;;;;;;;;;;;14.59;46.19;100315.91;5018942;27;97954;-62
2022/02/05 02:44:28;;;;;;;;;;;;;;;14.58;46.33;100320.53;5011610;27;98218;-54
2022/02/05 02:46:54;;;;;;;;;;;;;;;14.58;46.24;100323.25;4983844;28;111960;-62
2022/02/05 02:49:42;;;;;;;;;;;;;;;14.58;46.10;100322.41;4981341;27;127398;-61
2022/02/05 02:57:40;;;;;;;;;;;;;;;14.59;46.26;100356.59;5002107;27;98115;-56
2022/02/05 03:00:11;;;;;;;;;;;;;;;14.59;46.37;100348.47;4988202;27;97670;-55
2022/02/05 03:02:37;;;;;;;;;;;;;;;14.58;46.02;100346.81;5006024;27;97920;-62
2022/02/05 03:05:03;;;;;;;;;;;;;;;14.58;45.94;100357.69;5002729;27;129083;-62
2022/02/05 03:07:29;;;;;;;;;;;;;;;14.58;46.02;100352.25;5003894;27;120353;-55
2022/02/05 03:09:56;;;;;;;;;;;;;;;14.58;45.95;100360.38;4975963;27;123876;-62
2022/02/05 03:12:22;;;;;;;;;;;;;;;14.58;46.35;100363.09;4989520;27;97790;-62
2022/02/05 03:14:48;;;;;;;;;;;;;;;14.57;46.24;100365.00;4974828;28;98388;-55
2022/02/05 03:17:16;;;;;;;;;;;;;;;14.58;46.31;100365.81;4984397;28;98081;-54
2022/02/05 03:19:47;;;;;;;;;;;;;;;14.56;46.06;100374.25;4969244;28;98056;-55
2022/02/05 03:22:16;;;;;;;;;;;;;;;14.57;46.34;100370.44;4965924;28;98284;-55
2022/02/05 03:24:42;;;;;;;;;;;;;;;14.57;46.49;100375.06;4984577;27;112849;-62
2022/02/05 03:27:10;;;;;;;;;;;;;;;14.56;46.33;100379.69;4984443;27;98603;-55
2022/02/05 03:29:36;;;;;;;;;;;;;;;14.56;45.83;100384.31;4968272;28;98169;-62
2022/02/05 03:32:03;;;;;;;;;;;;;;;14.56;46.05;100384.31;4986293;27;97987;-55
2022/02/05 03:34:29;;;;;;;;;;;;;;;14.55;46.18;100390.84;5003509;27;98796;-62
2022/02/05 03:36:55;;;;;;;;;;;;;;;14.54;46.05;100394.63;5003419;27;127952;-56
2022/02/05 03:39:21;;;;;;;;;;;;;;;14.54;46.29;100384.63;4980960;27;99466;-62
2022/02/05 03:41:47;;;;;;;;;;;;;;;14.54;45.78;100389.22;4968778;28;112099;-55
2022/02/05 03:44:13;;;;;;;;;;;;;;;14.53;46.31;100387.59;4982769;27;128700;-62
2022/02/05 03:46:39;;;;;;;;;;;;;;;14.51;46.05;100390.63;4966519;27;128094;-62
2022/02/05 03:49:05;;;;;;;;;;;;;;;14.51;45.96;100395.25;4966390;27;126742;-62
2022/02/05 03:51:31;;;;;;;;;;;;;;;14.49;46.01;100403.66;4984397;28;98102;-56
2022/02/05 03:53:57;;;;;;;;;;;;;;;14.47;46.18;100406.66;4983870;27;98303;-62
2022/02/05 03:56:23;;;;;;;;;;;;;;;14.46;46.03;100415.06;4983289;27;98241;-54
2022/02/05 03:58:49;;;;;;;;;;;;;;;14.44;45.84;100409.13;4965344;28;126768;-62
2022/02/05 04:01:15;;;;;;;;;;;;;;;14.43;46.06;100426.50;4965555;28;110331;-61
2022/02/05 04:03:41;;;;;;;;;;;;;;;14.42;46.00;100428.44;4984795;27;107387;-63
2022/02/05 04:06:07;;;;;;;;;;;;;;;14.42;46.15;100433.00;5003388;27;127452;-61
2022/02/05 04:08:33;;;;;;;;;;;;;;;14.41;46.13;100434.94;4988207;27;119348;-62
2022/02/05 04:11:16;;;;;;;;;;;;;;;14.40;45.95;100430.59;4980895;28;97986;-63
2022/02/05 04:16:26;;;;;;;;;;;;;;;14.40;46.02;100441.47;5002255;27;98040;-55
2022/02/05 04:18:54;;;;;;;;;;;;;;;14.39;45.81;100439.06;4984925;27;128479;-62
2022/02/05 04:21:20;;;;;;;;;;;;;;;14.38;45.86;100440.13;5003915;27;97712;-62
2022/02/05 04:23:47;;;;;;;;;;;;;;;14.37;46.05;100435.81;5000401;27;104777;-62
2022/02/05 04:26:16;;;;;;;;;;;;;;;14.37;46.14;100442.03;4984006;28;98348;-55
2022/02/05 04:28:42;;;;;;;;;;;;;;;14.37;45.74;100446.66;4968319;27;100793;-62
2022/02/05 04:31:09;;;;;;;;;;;;;;;14.36;45.80;100447.75;4983550;28;98106;-56
2022/02/05 04:33:35;;;;;;;;;;;;;;;14.36;45.88;100445.06;4964241;27;99542;-62
2022/02/05 04:36:02;;;;;;;;;;;;;;;14.35;45.75;100443.44;4982884;28;98566;-55
2022/02/05 04:38:29;;;;;;;;;;;;;;;14.34;45.87;100444.53;4986804;27;98254;-55
2022/02/05 04:41:00;;;;;;;;;;;;;;;14.33;45.69;100445.63;4978928;28;97919;-62
2022/02/05 04:56:47;;;;;;;;;;;;;;;14.26;45.65;100456.81;5002861;27;97846;-56
2022/02/05 04:59:46;;;;;;;;;;;;;;;14.26;45.77;100456.81;4985206;27;98019;-62
2022/02/05 05:04:47;;;;;;;;;;;;;;;14.24;45.97;100462.56;5001914;27;98473;-62
2022/02/05 05:20:27;;;;;;;;;;;;;;;14.22;45.48;100466.66;4961519;28;97861;-56
2022/02/05 05:22:53;;;;;;;;;;;;;;;14.22;45.92;100469.34;4944541;28;111130;-63
2022/02/05 05:25:19;;;;;;;;;;;;;;;14.21;45.76;100479.41;4943348;28;128056;-63
2022/02/05 05:27:45;;;;;;;;;;;;;;;14.21;45.76;100470.47;4957748;28;128178;-56
2022/02/05 05:30:11;;;;;;;;;;;;;;;14.19;45.60;100472.66;4963515;28;126616;-63
2022/02/05 05:32:38;;;;;;;;;;;;;;;14.20;45.85;100479.69;4983229;28;97706;-56
2022/02/05 05:35:04;;;;;;;;;;;;;;;14.17;45.88;100477.56;4966828;28;99239;-63
2022/02/05 05:37:30;;;;;;;;;;;;;;;14.16;45.70;100476.75;4962670;28;98417;-63
2022/02/05 05:39:56;;;;;;;;;;;;;;;14.20;45.81;100472.38;4973701;28;97959;-56
2022/02/05 05:42:26;;;;;;;;;;;;;;;14.25;45.83;100472.28;4981822;28;109863;-62
2022/02/05 05:47:34;;;;;;;;;;;;;;;14.36;45.56;100475.69;4965045;28;98576;-56
2022/02/05 05:50:05;;;;;;;;;;;;;;;14.41;45.71;100481.03;4961667;28;98004;-63
2022/02/05 05:52:31;;;;;;;;;;;;;;;14.44;45.68;100485.06;4962883;28;97698;-63
2022/02/05 05:54:57;;;;;;;;;;;;;;;14.45;45.52;100482.06;4962170;28;98023;-55
2022/02/05 05:57:23;;;;;;;;;;;;;;;14.48;45.52;100488.81;4961170;28;120617;-55
2022/02/05 05:59:49;;;;;;;;;;;;;;;14.48;45.48;100486.91;4959735;28;128146;-57
2022/02/05 06:02:15;;;;;;;;;;;;;;;14.48;45.57;100489.59;4963779;28;98055;-55
2022/02/05 06:04:40;;;;;;;;;;;;;;;14.48;45.50;100491.50;4979714;28;128350;-56
2022/02/05 06:07:07;;;;;;;;;;;;;;;14.48;45.22;100492.31;4979746;28;128235;-56
2022/02/05 06:09:40;;;;;;;;;;;;;;;14.47;45.17;100496.13;4980020;28;99062;-55
2022/02/05 06:12:07;;;;;;;;;;;;;;;14.48;45.51;100499.66;4980829;28;97749;-56
2022/02/05 06:14:33;;;;;;;;;;;;;;;14.47;45.35;100514.31;4971715;28;109561;-56
2022/02/05 06:17:05;;;;;;;;;;;;;;;14.47;45.21;100514.31;4958268;28;124056;-56
2022/02/05 06:19:31;;;;;;;;;;;;;;;14.46;45.21;100515.41;4960026;28;97809;-56
2022/02/05 06:21:57;;;;;;;;;;;;;;;14.46;45.17;100516.22;4964288;28;97854;-56
2022/02/05 06:24:23;;;;;;;;;;;;;;;14.46;45.05;100520.81;4963180;28;127806;-56
2022/02/05 06:26:49;;;;;;;;;;;;;;;14.46;45.31;100523.53;4963590;28;125864;-56
2022/02/05 06:29:15;;;;;;;;;;;;;;;14.46;45.19;100521.66;4970090;28;128808;-56
2022/02/05 06:31:41;;;;;;;;;;;;;;;14.45;45.23;100527.34;4978197;28;112084;-55
2022/02/05 06:34:07;;;;;;;;;;;;;;;14.45;45.10;100538.19;4983330;28;128206;-56
2022/02/05 06:36:33;;;;;;;;;;;;;;;14.44;45.34;100536.59;4983700;28;126787;-56
2022/02/05 06:38:59;;;;;;;;;;;;;;;14.44;44.93;100540.09;4981667;27;98433;-56
2022/02/05 06:41:25;;;;;;;;;;;;;;;14.43;45.26;100541.22;4981890;28;101010;-56
2022/02/05 06:43:50;;;;;;;;;;;;;;;14.44;44.84;100547.44;4948446;28;128237;-56
2022/02/05 06:46:16;;;;;;;;;;;;;;;14.42;44.88;100550.44;4960424;28;128113;-55
2022/02/05 06:48:42;;;;;;;;;;;;;;;14.42;44.78;100552.34;4962877;28;112508;-56
2022/02/05 06:51:08;;;;;;;;;;;;;;;14.43;44.98;100553.97;4960513;28;113074;-56
2022/02/05 06:53:34;;;;;;;;;;;;;;;14.42;45.08;100565.88;4961033;28;100506;-55
2022/02/05 06:56:00;;;;;;;;;;;;;;;14.41;45.07;100567.81;4970978;28;128874;-56
2022/02/05 06:58:26;;;;;;;;;;;;;;;14.42;44.92;100566.72;4978309;27;127358;-56
2022/02/05 07:00:52;;;;;;;;;;;;;;;14.42;45.13;100569.44;4961893;28;98228;-65
2022/02/05 07:03:21;;;;;;;;;;;;;;;14.44;45.07;100569.94;4960913;28;126294;-56
2022/02/05 07:05:47;;;;;;;;;;;;;;;14.44;44.83;100575.38;4960974;28;98437;-63
2022/02/05 07:08:13;;;;;;;;;;;;;;;14.46;44.64;100588.63;4961434;28;98258;-56
2022/02/05 07:10:39;;;;;;;;;;;;;;;14.47;44.67;100579.41;4961340;28;97871;-56
2022/02/05 07:13:17;;;;;;;;;;;;;;;14.48;45.02;100570.97;4961154;28;128164;-57
2022/02/05 07:21:01;;;;;;;;;;;;;;;14.55;44.76;100591.56;4968278;28;98141;-56
2022/02/05 07:31:43;;;;;;;;;;;;;;;14.71;44.33;100601.09;4973337;28;97798;-63
2022/02/05 07:34:09;;;;;;;;;;;;;;;14.76;44.56;100595.59;4974803;28;98343;-57
2022/02/05 07:36:35;;;;;;;;;;;;;;;14.81;44.69;100603.66;4977214;28;98149;-56
2022/02/05 07:39:01;;;;;;;;;;;;;;;14.86;44.22;100608.25;4974692;28;102617;-64
2022/02/05 07:41:27;;;;;;;;;;;;;;;14.92;44.46;100604.34;4967305;28;98009;-64
2022/02/05 07:43:53;;;;;;;;;;;;;;;14.99;44.10;100612.94;4960529;28;128303;-64
2022/02/05 07:46:19;;;;;;;;;;;;;;;15.15;44.32;100610.81;4975479;28;106188;-64
2022/02/05 07:48:45;;;;;;;;;;;;;;;15.25;44.09;100613.38;4967118;28;98009;-64
2022/02/05 07:51:12;;;;;;;;;;;;;;;15.23;43.96;100613.66;4978416;28;112685;-64
2022/02/05 07:53:39;;;;;;;;;;;;;;;15.25;44.35;100618.81;4966082;28;99274;-64
2022/02/05 07:56:05;;;;;;;;;;;;;;;15.17;44.25;100616.75;4997084;27;98371;-64
2022/02/05 07:58:33;;;;;;;;;;;;;;;15.10;44.52;100621.75;4990358;27;98463;-63
2022/02/05 08:00:59;;;;;;;;;;;;;;;15.05;44.93;100619.09;4973125;28;98245;-64
2022/02/05 08:03:25;;;;;;;;;;;;;;;14.98;44.96;100617.56;4968188;28;126382;-63
2022/02/05 08:05:50;;;;;;;;;;;;;;;14.96;45.05;100621.66;4974337;28;126218;-64
2022/02/05 08:08:21;;;;;;;;;;;;;;;14.96;44.87;100624.38;4978794;27;126474;-64
2022/02/05 08:11:06;;;;;;;;;;;;;;;14.95;45.06;100633.63;4967832;28;98312;-64
2022/02/05 08:13:33;;;;;;;;;;;;;;;14.92;45.07;100628.75;4972078;28;99025;-64
2022/02/05 08:18:45;;;;;;;;;;;;;;;14.87;45.00;100636.97;4959825;27;98379;-63
2022/02/05 08:21:11;;;;;;;;;;;;;;;14.85;44.84;100639.97;4972238;27;112329;-63
2022/02/05 08:23:37;;;;;;;;;;;;;;;14.87;45.04;100645.13;4975322;28;127061;-64
2022/02/05 08:26:04;;;;;;;;;;;;;;;14.88;44.93;100646.72;4975385;28;98324;-64
2022/02/05 08:28:30;;;;;;;;;;;;;;;14.93;44.68;100658.34;4969736;28;98626;-64
2022/02/05 08:30:56;;;;;;;;;;;;;;;14.94;44.95;100651.81;4962649;28;98341;-66
2022/02/05 08:33:22;;;;;;;;;;;;;;;14.91;44.87;100667.88;4979620;28;99491;-64
2022/02/05 08:35:50;;;;;;;;;;;;;;;14.88;45.02;100673.88;4971641;28;113713;-64
2022/02/05 08:38:19;;;;;;;;;;;;;;;14.88;44.88;100676.59;4979535;28;97935;-64
2022/02/05 08:40:45;;;;;;;;;;;;;;;14.87;44.94;100670.34;4974440;28;98036;-63
2022/02/05 08:43:11;;;;;;;;;;;;;;;14.88;45.14;100671.97;4978847;28;99797;-64
2022/02/05 08:45:37;;;;;;;;;;;;;;;14.95;44.73;100679.75;4971281;28;123228;-64
2022/02/05 08:48:04;;;;;;;;;;;;;;;14.98;44.94;100671.84;4963330;28;118818;-63
2022/02/05 08:50:30;;;;;;;;;;;;;;;14.99;44.88;100675.34;4972939;28;97958;-63
2022/02/05 08:52:56;;;;;;;;;;;;;;;15.04;44.57;100682.63;4960055;28;128368;-64
2022/02/05 08:55:22;;;;;;;;;;;;;;;15.05;44.82;100690.50;4976900;28;106466;-64
2022/02/05 08:57:48;;;;;;;;;;;;;;;15.02;44.85;100690.28;4979787;28;97970;-63
2022/02/05 09:00:22;;;;;;;;;;;;;;;14.97;44.67;100700.09;4973749;28;98236;-63
2022/02/05 09:02:56;;;;;;;;;;;;;;;14.95;44.86;100705.00;4978459;28;98152;-64
2022/02/05 09:05:40;;;;;;;;;;;;;;;14.94;44.83;100714.22;4975883;28;98471;-64
2022/02/05 09:08:18;;;;;;;;;;;;;;;14.98;44.66;100719.91;4979323;28;98132;-64
2022/02/05 09:10:58;;;;;;;;;;;;;;;15.02;44.88;100730.97;4973814;28;98355;-56
2022/02/05 09:15:54;;;;;;;;;;;;;;;15.04;44.98;100726.84;4975033;28;98371;-55
2022/02/05 09:18:20;;;;;;;;;;;;;;;15.12;44.58;100723.50;4972031;28;99529;-63
2022/02/05 09:20:46;;;;;;;;;;;;;;;15.23;44.57;100716.03;4979670;28;97982;-63
2022/02/05 09:23:12;;;;;;;;;;;;;;;15.30;44.84;100749.06;4979138;28;98778;-64
2022/02/05 09:25:41;;;;;;;;;;;;;;;15.21;45.02;100746.22;4975345;28;127790;-56
2022/02/05 09:28:10;;;;;;;;;;;;;;;15.16;45.36;100759.03;4977375;28;98147;-63
2022/02/05 09:33:21;;;;;;;;;;;;;;;15.09;44.99;100753.13;4975587;28;97943;-63
2022/02/05 09:35:47;;;;;;;;;;;;;;;15.04;45.33;100748.56;4977462;28;127781;-56
2022/02/05 09:38:13;;;;;;;;;;;;;;;14.98;45.45;100755.19;4976758;28;127572;-55
2022/02/05 09:40:39;;;;;;;;;;;;;;;15.00;45.32;100766.53;4978194;28;102943;-63
2022/02/05 09:43:05;;;;;;;;;;;;;;;15.10;45.21;100761.00;4977552;28;128053;-63
2022/02/05 09:45:34;;;;;;;;;;;;;;;15.20;45.35;100768.19;4975934;28;127690;-56
2022/02/05 09:47:59;;;;;;;;;;;;;;;15.47;44.88;100773.81;4968521;28;108470;-63
2022/02/05 09:50:25;;;;;;;;;;;;;;;16.43;43.75;100783.53;4987502;27;111710;-56
2022/02/05 09:52:53;;;;;;;;;;;;;;;16.10;44.55;100782.72;4970318;28;101630;-56
2022/02/05 09:55:19;;;;;;;;;;;;;;;16.06;44.74;100787.13;4979480;27;98953;-56
2022/02/05 09:57:45;;;;;;;;;;;;;;;16.15;44.52;100788.06;4981777;28;97933;-64
2022/02/05 10:00:16;;;;;;;;;;;;;;;16.21;44.60;100786.88;4968229;28;97827;-56
2022/02/05 10:02:42;;;;;;;;;;;;;;;16.29;44.59;100791.66;4977439;28;98408;-63
2022/02/05 10:05:11;;;;;;;;;;;;;;;16.48;44.51;100785.38;4969836;28;98706;-56
2022/02/05 10:07:56;;;;;;;;;;;;;;;16.65;44.26;100791.03;4976855;28;99662;-57
2022/02/05 10:10:22;;;;;;;;;;;;;;;16.66;44.62;100789.91;4977559;28;98064;-64
2022/02/05 10:13:18;;;;;;;;;;;;;;;16.83;44.32;100792.09;4966834;28;100708;-63
2022/02/05 10:15:47;;;;;;;;;;;;;;;16.91;44.59;100791.41;4968812;28;100196;-63
2022/02/05 10:18:26;;;;;;;;;;;;;;;16.95;44.69;100789.69;4973999;28;98377;-64
2022/02/05 10:20:57;;;;;;;;;;;;;;;17.12;44.47;100792.59;4969112;28;98455;-57
2022/02/05 10:23:22;;;;;;;;;;;;;;;17.19;44.58;100792.22;4979502;28;97762;-64
2022/02/05 10:25:49;;;;;;;;;;;;;;;17.45;44.37;100799.84;4979792;28;127028;-64
2022/02/05 10:28:15;;;;;;;;;;;;;;;17.49;44.55;100792.66;4974326;28;98077;-56
2022/02/05 10:30:50;;;;;;;;;;;;;;;17.58;44.55;100791.66;4963654;28;98070;-63
2022/02/05 10:33:21;;;;;;;;;;;;;;;17.72;44.47;100801.69;4961213;28;98467;-64
2022/02/05 10:43:49;;;;;;;;;;;;;;;18.34;44.34;100799.16;4959609;28;99623;-63
2022/02/05 10:46:15;;;;;;;;;;;;;;;18.07;44.85;100797.38;4961320;28;101877;-64
2022/02/05 10:48:41;;;;;;;;;;;;;;;18.14;44.75;100808.66;4960796;28;123161;-64
2022/02/05 10:51:07;;;;;;;;;;;;;;;18.25;44.85;100793.66;4935771;28;97826;-64
2022/02/05 10:53:40;;;;;;;;;;;;;;;18.36;44.81;100799.69;4958339;28;98229;-64
2022/02/05 10:56:18;;;;;;;;;;;;;;;18.50;44.77;100799.59;4960888;28;98746;-64
2022/02/05 11:07:19;;;;;;;;;;;;;;;18.47;45.07;100816.56;4943935;28;98025;-64
2022/02/05 11:09:53;;;;;;;;;;;;;;;18.30;45.38;100806.38;4952026;28;121889;-64
2022/02/05 11:12:48;;;;;;;;;;;;;;;18.19;45.62;100800.34;4951327;28;98034;-64
2022/02/05 11:20:14;;;;;;;;;;;;;;;17.80;46.09;100804.56;4954222;28;98038;-64
2022/02/05 11:23:03;;;;;;;;;;;;;;;17.64;46.18;100801.34;4960974;28;97877;-64
2022/02/05 11:25:38;;;;;;;;;;;;;;;17.49;46.51;100806.28;4937511;28;98004;-63
2022/02/05 11:28:04;;;;;;;;;;;;;;;17.48;46.26;100797.31;4950948;28;98439;-64
2022/02/05 11:30:42;;;;;;;;;;;;;;;17.47;46.21;100795.69;4958335;28;98007;-64
2022/02/05 11:33:22;;;;;;;;;;;;;;;17.52;46.18;100798.31;4964183;28;98170;-58
2022/02/05 11:38:28;;;;;;;;;;;;;;;17.65;45.90;100788.50;4989872;27;98253;-57
2022/02/05 11:40:55;;;;;;;;;;;;;;;17.56;45.99;100796.59;4980395;28;98337;-64
2022/02/05 11:43:28;;;;;;;;;;;;;;;17.53;45.96;100791.75;4962430;28;98174;-64
2022/02/05 11:46:17;;;;;;;;;;;;;;;17.46;46.09;100799.53;4979844;28;98618;-64
2022/02/05 11:48:55;;;;;;;;;;;;;;;17.52;45.91;100792.06;4969178;28;99164;-56
2022/02/05 11:51:32;;;;;;;;;;;;;;;17.62;45.59;100797.28;4980110;28;98292;-63
2022/02/05 11:53:58;;;;;;;;;;;;;;;17.69;45.34;100789.50;4971060;28;98935;-57
2022/02/05 11:56:56;;;;;;;;;;;;;;;17.74;45.38;100794.03;4977679;28;98130;-56
2022/02/05 11:59:26;;;;;;;;;;;;;;;17.71;45.56;100790.00;4978917;27;98044;-64
2022/02/05 12:02:14;;;;;;;;;;;;;;;17.64;45.51;100784.97;4978488;28;98184;-64
2022/02/05 12:04:40;;;;;;;;;;;;;;;17.54;45.83;100790.66;4980822;28;97803;-64
2022/02/05 12:07:07;;;;;;;;;;;;;;;17.47;45.81;100792.16;4975325;28;99169;-64
2022/02/05 12:09:40;;;;;;;;;;;;;;;17.45;45.83;100794.38;4979662;27;99474;-57
2022/02/05 12:12:34;;;;;;;;;;;;;;;17.34;45.68;100800.06;4979948;28;98126;-64
2022/02/05 12:15:15;;;;;;;;;;;;;;;17.18;45.95;100804.22;4967608;28;97937;-56
2022/02/05 12:18:29;;;;;;;;;;;;;;;17.07;46.09;100808.25;4976524;27;98293;-64
2022/02/05 12:20:53;;;;;;;;;;;;;;;17.01;45.90;100818.41;4976087;28;98308;-63
2022/02/05 12:26:01;;;;;;;;;;;;;;;17.02;45.82;100816.53;4978759;28;98382;-57
2022/02/05 12:28:30;;;;;;;;;;;;;;;16.95;45.93;100816.91;4979803;27;98716;-56
2022/02/05 12:30:59;;;;;;;;;;;;;;;16.95;45.79;100818.84;4979871;28;98582;-57
2022/02/05 12:33:44;;;;;;;;;;;;;;;17.05;45.63;100821.34;4979536;28;98078;-64
2022/02/05 12:36:10;;;;;;;;;;;;;;;17.02;45.66;100820.06;4991018;27;98072;-56
2022/02/05 12:38:39;;;;;;;;;;;;;;;16.93;45.79;100816.41;4983090;27;127185;-57
2022/02/05 12:41:06;;;;;;;;;;;;;;;16.87;45.88;100817.63;4974142;28;98363;-64
2022/02/05 12:43:51;;;;;;;;;;;;;;;16.92;45.58;100807.44;4957555;28;98181;-57
2022/02/05 12:46:18;;;;;;;;;;;;;;;17.01;45.29;100809.44;4961774;28;98338;-64
2022/02/05 12:48:46;;;;;;;;;;;;;;;16.94;45.49;100804.41;4973321;27;98682;-63
2022/02/05 12:51:12;;;;;;;;;;;;;;;16.85;45.69;100800.75;4980208;27;99402;-57
2022/02/05 12:53:40;;;;;;;;;;;;;;;16.75;45.69;100796.31;4974594;27;127715;-56
2022/02/05 12:56:15;;;;;;;;;;;;;;;16.66;45.63;100803.53;4997338;27;98174;-63
2022/02/05 12:59:05;;;;;;;;;;;;;;;16.61;45.78;100818.03;4991066;27;98490;-64
2022/02/05 13:01:32;;;;;;;;;;;;;;;16.57;45.65;100810.78;4977171;28;98496;-58
2022/02/05 13:04:17;;;;;;;;;;;;;;;16.63;45.49;100809.59;4974994;28;109684;-56
2022/02/05 13:06:43;;;;;;;;;;;;;;;16.80;45.28;100801.66;4974072;28;97934;-64
2022/02/05 13:09:20;;;;;;;;;;;;;;;16.82;45.19;100804.91;4969903;27;116488;-64
2022/02/05 13:11:51;;;;;;;;;;;;;;;16.84;45.30;100799.16;4999657;27;98379;-64
2022/02/05 13:14:17;;;;;;;;;;;;;;;16.90;45.00;100806.13;4976040;27;98053;-57
2022/02/05 13:16:44;;;;;;;;;;;;;;;17.00;44.74;100791.50;4969302;28;112257;-64
2022/02/05 13:19:24;;;;;;;;;;;;;;;17.18;44.61;100793.31;4963239;27;98895;-64
2022/02/05 13:27:27;;;;;;;;;;;;;;;17.10;44.68;100796.75;4999433;27;98077;-62
2022/02/05 13:33:33;;;;;;;;;;;;;;;17.06;44.85;100807.44;4965588;27;98274;-56
2022/02/05 13:35:26;;;;;;;;;;;;;;;16.99;44.80;100801.59;4967505;27;98131;-64
2022/02/05 13:37:56;;;;;;;;;;;;;;;16.98;44.78;100804.59;4998253;27;112368;-64
2022/02/05 13:40:24;;;;;;;;;;;;;;;16.91;44.81;100805.81;4975082;28;99278;-56
2022/02/05 13:42:52;;;;;;;;;;;;;;;16.88;44.79;100800.97;4977533;28;100651;-65
2022/02/05 13:45:25;;;;;;;;;;;;;;;16.83;45.11;100806.53;4978373;28;97961;-57
2022/02/05 13:47:52;;;;;;;;;;;;;;;16.75;44.98;100798.25;4958719;28;98123;-56
2022/02/05 13:50:22;;;;;;;;;;;;;;;16.74;44.92;100791.16;4976591;28;98432;-64
2022/02/05 13:52:51;;;;;;;;;;;;;;;16.80;44.95;100803.59;4975186;28;116948;-64
2022/02/05 13:55:22;;;;;;;;;;;;;;;16.83;44.91;100795.63;4979186;28;98072;-64
2022/02/05 13:57:52;;;;;;;;;;;;;;;16.87;44.78;100809.44;4977506;28;98056;-56
2022/02/05 14:00:18;;;;;;;;;;;;;;;16.90;44.67;100800.69;4977692;28;98778;-64
2022/02/05 14:02:44;;;;;;;;;;;;;;;16.92;44.70;100801.19;4946463;28;108191;-64
2022/02/05 14:05:14;;;;;;;;;;;;;;;16.92;44.65;100803.91;4970969;28;126978;-58
2022/02/05 14:07:47;;;;;;;;;;;;;;;16.96;44.61;100794.03;4979418;28;98142;-56
2022/02/05 14:10:17;;;;;;;;;;;;;;;16.97;44.68;100800.25;4977170;28;98408;-64
2022/02/05 14:12:50;;;;;;;;;;;;;;;16.93;44.70;100802.78;4978665;28;99720;-56
2022/02/05 14:15:17;;;;;;;;;;;;;;;16.89;44.65;100801.78;4976973;28;97925;-56
2022/02/05 14:17:46;;;;;;;;;;;;;;;16.86;44.64;100799.69;4974696;28;97886;-56
2022/02/05 14:20:12;;;;;;;;;;;;;;;16.86;44.71;100807.84;4978999;28;98471;-56
2022/02/05 14:22:41;;;;;;;;;;;;;;;16.84;44.63;100807.31;4969225;28;99478;-56
2022/02/05 14:25:20;;;;;;;;;;;;;;;16.83;44.57;100822.84;4977031;28;98044;-58
2022/02/05 14:28:12;;;;;;;;;;;;;;;16.80;44.74;100809.03;4976223;28;98080;-55
2022/02/05 14:30:42;;;;;;;;;;;;;;;16.77;44.83;100812.34;4969406;28;99223;-56
2022/02/05 14:33:09;;;;;;;;;;;;;;;16.71;44.84;100819.78;4976524;28;98383;-56
2022/02/05 14:40:49;;;;;;;;;;;;;;;16.64;44.97;100822.06;4988963;27;97996;-56
2022/02/05 14:43:17;;;;;;;;;;;;;;;16.66;44.88;100822.56;5001675;27;103492;-56
2022/02/05 14:45:44;;;;;;;;;;;;;;;16.65;44.73;100815.53;5000629;27;98046;-56
2022/02/05 14:48:09;;;;;;;;;;;;;;;16.64;44.83;100813.91;4988076;27;98010;-56
2022/02/05 14:50:35;;;;;;;;;;;;;;;16.61;44.77;100815.31;4980064;28;127610;-56
2022/02/05 14:53:02;;;;;;;;;;;;;;;16.59;44.86;100820.25;4969759;28;98682;-56
2022/02/05 14:55:28;;;;;;;;;;;;;;;16.55;44.82;100810.28;4979668;28;98254;-56
2022/02/05 14:57:54;;;;;;;;;;;;;;;16.53;44.73;100809.75;4972874;28;97800;-56
2022/02/05 15:00:19;;;;;;;;;;;;;;;16.49;44.58;100817.69;4979453;28;115793;-56
2022/02/05 15:02:45;;;;;;;;;;;;;;;16.44;44.64;100813.16;4980381;28;121912;-56
2022/02/05 15:05:12;;;;;;;;;;;;;;;16.39;44.65;100815.97;4975019;28;123927;-56
2022/02/05 15:07:40;;;;;;;;;;;;;;;16.37;44.71;100812.72;4982154;28;97906;-55
2022/02/05 15:10:06;;;;;;;;;;;;;;;16.37;44.59;100825.53;4969227;28;98152;-56
2022/02/05 15:12:32;;;;;;;;;;;;;;;16.37;44.42;100822.81;4981049;28;98574;-56
2022/02/05 15:14:58;;;;;;;;;;;;;;;16.36;44.59;100829.34;4970370;28;127350;-56
2022/02/05 15:17:24;;;;;;;;;;;;;;;16.33;44.76;100832.66;4978500;28;98686;-56
2022/02/05 15:19:50;;;;;;;;;;;;;;;16.30;44.62;100831.34;4979642;28;98907;-56
2022/02/05 15:22:16;;;;;;;;;;;;;;;16.24;44.44;100832.53;4971773;27;99004;-56
2022/02/05 15:24:43;;;;;;;;;;;;;;;16.21;44.88;100824.97;4979872;27;98531;-56
2022/02/05 15:27:10;;;;;;;;;;;;;;;16.17;44.46;100826.66;5001290;27;97842;-57
2022/02/05 15:29:36;;;;;;;;;;;;;;;16.13;44.74;100831.88;4984594;27;108305;-56
2022/02/05 15:32:02;;;;;;;;;;;;;;;16.11;44.71;100831.38;5000045;27;105686;-56
2022/02/05 15:34:28;;;;;;;;;;;;;;;16.06;44.70;100831.44;4999811;27;98408;-56
2022/02/05 15:37:05;;;;;;;;;;;;;;;16.04;44.72;100827.41;4982547;27;97819;-55
2022/02/05 15:39:53;;;;;;;;;;;;;;;15.99;44.50;100825.56;4969164;28;100402;-56